الصفحة الرئيسية
METAR-TAF:

METAR-TAF

مطار :

Talara, بيرو

دائرة عرض: 04-34S, خط طول: 081-15W, ارتفاع: 85 متر

مراقبة الطقس الحالي

تاريخ ووقت الإصدار 23 دقيقة قبل الساعة 17:00UTC
ريح 14 عقدة من الجنوب
درجة الحرارة 33°درجة مئوية
الرطوبة 53%
ضغط 1011 hPa
الرؤية 10 كم أو أكثر
الغيوم لا تقل 1500 م ولا وجود لمزنة ركامية السحاب الأسود

METAR: SPYL 041700Z 18014KT CAVOK 33/22 Q1011 RMK BIRD HAZARD RWY 17/35 PP000

زمن: 12:23 (17:23 UTC)

توقعات

تاريخ ووقت الإصدار 6ساعات و 23 دقيقة قبل الساعة 11:00UTC
التوقعات صالحة من04 الساعة 12 UTC إلى 05 الساعة 12 UTC
ريح 8 عقدة من الجنوب/الجنوب الشرقي
الرؤية 10 كم أو أكثر
الغيوم لا تقل 1500 م ولا وجود لمزنة ركامية السحاب الأسود
أصبح
من 04 الساعة 17 UTC إلى 04 الساعة 19 UTC
ريح 13 عقدة من الجنوب الغربي

TAF: SPYL 041100Z 0412/0512 15008KT CAVOK TX32/0419Z TN21/0511Z BECMG 0417/0419 22013KT

أرصاد الطقس والتوقعات من أكثر من 4000 مطار (تقارير الطقس للمطار METAR والتنبؤ بالطقس بالمطارTAF).

المحطات المتاحة هي النقط الصفراء والحمراء على الخريطة.

حرك المؤشر فوق النقطة لمعرفة اسم المحطة.

ثم انقر لمعرفة أرصاد وتوقعات الطقس.

لتغيير الخارطة: اضغط على الأزرار الخضراء مع رمز الصليب الأسود للتكبير. على الزر الأخضر مع شرطة للتصغير، أو على الأسهم الخضراء للخرائط المجاورة.


METAR-TAF: